Time;durP1;ratioP1;P1;durP2;ratioP2;P2;SDS_P1;SDS_P2;PMS_P1;PMS_P2;Temp;Humidity;BMP_temperature;BMP_pressure;BME280_temperature;BME280_humidity;BME280_pressure;Samples;Min_cycle;Max_cycle;Signal;HPM_P1;HPM_P2
2023/06/29 00:00:27;;;;;;;3.28;3.08;;;21.20;99.90;;;;;;5070462;28;20194;-67
2023/06/29 00:02:57;;;;;;;2.45;2.35;;;21.20;99.90;;;;;;5070240;28;20201;-67
2023/06/29 00:05:25;;;;;;;2.88;2.70;;;21.20;99.90;;;;;;5070776;28;20205;-67
2023/06/29 00:07:52;;;;;;;3.00;2.80;;;21.20;99.90;;;;;;5080969;28;20255;-67
2023/06/29 00:10:25;;;;;;;3.10;2.90;;;21.20;99.90;;;;;;5090952;28;20665;-67
2023/06/29 00:12:52;;;;;;;3.03;2.83;;;21.20;99.90;;;;;;5089606;28;20610;-67
2023/06/29 00:15:19;;;;;;;3.17;2.97;;;21.10;99.90;;;;;;5067925;28;20200;-67
2023/06/29 00:17:47;;;;;;;2.63;2.50;;;21.10;99.90;;;;;;5088544;28;20230;-67
2023/06/29 00:20:15;;;;;;;2.65;2.55;;;21.10;99.90;;;;;;5088813;28;20204;-67
2023/06/29 00:22:47;;;;;;;2.80;2.60;;;21.10;99.90;;;;;;5077652;28;20200;-67
2023/06/29 00:25:15;;;;;;;2.97;2.78;;;21.20;99.90;;;;;;5090739;28;20561;-67
2023/06/29 00:27:44;;;;;;;2.85;2.70;;;21.20;99.90;;;;;;5090472;28;20207;-67
2023/06/29 00:30:13;;;;;;;2.50;2.40;;;21.20;99.90;;;;;;5089985;28;20184;-67
2023/06/29 00:32:40;;;;;;;2.88;2.50;;;21.20;99.90;;;;;;5090621;28;20208;-66
2023/06/29 00:35:08;;;;;;;2.55;2.35;;;21.20;99.90;;;;;;5069212;28;20231;-67
2023/06/29 00:37:35;;;;;;;3.10;2.65;;;21.20;99.90;;;;;;5062111;28;20200;-67
2023/06/29 00:40:03;;;;;;;2.28;2.17;;;21.20;99.90;;;;;;5087849;28;20220;-66
2023/06/29 00:42:30;;;;;;;2.70;2.50;;;21.20;99.90;;;;;;5090337;28;20612;-66
2023/06/29 00:44:58;;;;;;;2.22;2.13;;;21.20;99.90;;;;;;5089160;28;20287;-67
2023/06/29 00:47:26;;;;;;;2.22;2.13;;;21.20;99.90;;;;;;5089568;28;20196;-67
2023/06/29 00:49:53;;;;;;;2.28;2.17;;;21.20;99.90;;;;;;5090430;28;20243;-67
2023/06/29 00:52:21;;;;;;;2.20;2.10;;;21.20;99.90;;;;;;5065763;28;20664;-68
2023/06/29 00:54:49;;;;;;;2.13;2.03;;;21.20;99.90;;;;;;5089047;28;20203;-67
2023/06/29 00:57:18;;;;;;;2.22;2.13;;;21.20;99.90;;;;;;5090720;28;20601;-67
2023/06/29 00:59:45;;;;;;;1.92;1.83;;;21.20;99.90;;;;;;5089189;28;20207;-67
2023/06/29 01:02:14;;;;;;;2.15;2.05;;;21.20;99.90;;;;;;5089942;28;20209;-67
2023/06/29 01:04:41;;;;;;;2.00;1.90;;;21.20;99.90;;;;;;5089938;28;20201;-68
2023/06/29 01:07:15;;;;;;;2.10;2.00;;;21.20;99.90;;;;;;5089209;28;20365;-68
2023/06/29 01:09:45;;;;;;;1.80;1.70;;;21.20;99.90;;;;;;5068765;28;20205;-67
2023/06/29 01:12:16;;;;;;;1.90;1.80;;;21.20;99.90;;;;;;5085660;28;20199;-67
2023/06/29 01:14:45;;;;;;;2.08;1.98;;;21.20;99.90;;;;;;5088870;28;20192;-67
2023/06/29 01:17:19;;;;;;;1.80;1.70;;;21.20;99.90;;;;;;5071187;28;20216;-67
2023/06/29 01:19:50;;;;;;;1.90;1.80;;;21.20;99.90;;;;;;5076353;28;20224;-67
2023/06/29 01:22:21;;;;;;;1.90;1.80;;;21.20;99.90;;;;;;5084714;28;20288;-67
2023/06/29 01:24:50;;;;;;;1.60;1.50;;;21.20;99.90;;;;;;5089207;28;20196;-67
2023/06/29 01:27:17;;;;;;;1.80;1.70;;;21.20;99.90;;;;;;5087332;28;20224;-67
2023/06/29 01:29:44;;;;;;;1.90;1.80;;;21.20;99.90;;;;;;5088540;28;20203;-67
2023/06/29 01:32:11;;;;;;;1.70;1.60;;;21.20;99.90;;;;;;5086552;28;20192;-67
2023/06/29 01:34:40;;;;;;;1.90;1.80;;;21.10;99.90;;;;;;5083915;28;20199;-67
2023/06/29 01:37:11;;;;;;;1.80;1.70;;;21.10;99.90;;;;;;5070847;28;20226;-67
2023/06/29 01:39:45;;;;;;;1.88;1.77;;;21.10;99.90;;;;;;5088773;28;20216;-67
2023/06/29 01:42:14;;;;;;;1.55;1.50;;;21.10;99.90;;;;;;5077288;28;20221;-67
2023/06/29 01:44:41;;;;;;;2.28;1.90;;;21.10;99.90;;;;;;5087600;28;20536;-68
2023/06/29 01:47:10;;;;;;;2.67;2.47;;;21.10;99.90;;;;;;5065851;28;20230;-67
2023/06/29 01:49:40;;;;;;;2.72;2.53;;;21.10;99.90;;;;;;5070125;28;20205;-68
2023/06/29 01:52:08;;;;;;;3.08;2.72;;;21.10;99.90;;;;;;5088655;28;20196;-68
2023/06/29 01:54:35;;;;;;;1.70;1.70;;;21.10;99.90;;;;;;5059565;28;20273;-67
2023/06/29 01:57:05;;;;;;;2.75;2.60;;;21.20;99.90;;;;;;5089552;28;20199;-67
2023/06/29 01:59:33;;;;;;;2.03;1.92;;;21.10;99.90;;;;;;5070378;28;20217;-67
2023/06/29 02:02:00;;;;;;;2.08;1.90;;;21.10;99.90;;;;;;5088958;28;20227;-67
2023/06/29 02:04:28;;;;;;;1.95;1.85;;;21.00;99.90;;;;;;5089891;28;20197;-68
2023/06/29 02:06:55;;;;;;;2.33;2.22;;;21.00;99.90;;;;;;5089731;28;20303;-67
2023/06/29 02:09:22;;;;;;;2.00;1.90;;;21.00;99.90;;;;;;5088543;28;20210;-66
2023/06/29 02:11:49;;;;;;;2.10;2.00;;;21.00;99.90;;;;;;5090054;28;20204;-67
2023/06/29 02:14:17;;;;;;;2.60;2.40;;;21.00;99.90;;;;;;5089744;28;20294;-67
2023/06/29 02:16:46;;;;;;;2.15;2.05;;;20.90;99.90;;;;;;5088697;28;20201;-67
2023/06/29 02:19:14;;;;;;;2.22;2.10;;;20.90;99.90;;;;;;5088478;28;20211;-67
2023/06/29 02:21:43;;;;;;;2.60;2.40;;;20.80;99.90;;;;;;5088951;28;20244;-67
2023/06/29 02:24:11;;;;;;;2.30;2.10;;;20.80;99.90;;;;;;5088375;28;20663;-67
2023/06/29 02:26:39;;;;;;;2.38;2.22;;;20.80;99.90;;;;;;5089375;28;20284;-66
2023/06/29 02:29:07;;;;;;;2.28;2.10;;;20.80;99.90;;;;;;5086955;28;20200;-68
2023/06/29 02:31:34;;;;;;;2.30;2.10;;;20.80;99.90;;;;;;5086347;28;20276;-67
2023/06/29 02:34:02;;;;;;;2.88;2.30;;;20.80;99.90;;;;;;5068622;28;20671;-67
2023/06/29 02:36:30;;;;;;;2.63;1.95;;;20.80;99.90;;;;;;5080222;28;20321;-67
2023/06/29 02:38:58;;;;;;;2.22;2.13;;;20.80;99.90;;;;;;5069873;28;20224;-67
2023/06/29 02:41:25;;;;;;;2.20;2.10;;;20.80;99.90;;;;;;5070558;28;20209;-67
2023/06/29 02:43:54;;;;;;;2.05;1.95;;;20.80;99.90;;;;;;5072395;28;20287;-66
2023/06/29 02:46:22;;;;;;;2.30;2.20;;;20.80;99.90;;;;;;5071627;28;20204;-66
2023/06/29 02:48:49;;;;;;;1.80;1.70;;;20.80;99.90;;;;;;5071781;28;20212;-66
2023/06/29 02:51:17;;;;;;;2.22;2.08;;;20.70;99.90;;;;;;5089988;28;20679;-66
2023/06/29 02:53:46;;;;;;;2.38;2.28;;;20.70;99.90;;;;;;5072374;28;20297;-67
2023/06/29 02:56:13;;;;;;;3.45;2.40;;;20.70;99.90;;;;;;5074014;28;20591;-67
2023/06/29 02:58:40;;;;;;;2.50;2.28;;;20.70;99.90;;;;;;5073873;28;20675;-66
2023/06/29 03:01:11;;;;;;;2.10;2.00;;;20.70;99.90;;;;;;5073088;28;20582;-67
2023/06/29 03:03:38;;;;;;;2.10;2.00;;;20.70;99.90;;;;;;5091748;28;20196;-67
2023/06/29 03:06:08;;;;;;;1.80;1.70;;;20.70;99.90;;;;;;5073911;28;20200;-66
2023/06/29 03:08:36;;;;;;;1.77;1.67;;;20.60;99.90;;;;;;5072682;28;20672;-66
2023/06/29 03:11:03;;;;;;;1.90;1.80;;;20.60;99.90;;;;;;5091870;28;20245;-67
2023/06/29 03:13:30;;;;;;;2.03;1.92;;;20.60;99.90;;;;;;5091979;28;20196;-66
2023/06/29 03:16:00;;;;;;;2.00;1.80;;;20.70;99.90;;;;;;5073134;28;20313;-67
2023/06/29 03:18:28;;;;;;;2.33;1.90;;;20.70;99.90;;;;;;5072751;28;20209;-67
2023/06/29 03:20:55;;;;;;;2.10;1.88;;;20.60;99.90;;;;;;5091741;28;20212;-67
2023/06/29 03:23:22;;;;;;;2.22;2.10;;;20.70;99.90;;;;;;5077382;28;20640;-66
2023/06/29 03:25:50;;;;;;;2.33;2.22;;;20.70;99.90;;;;;;5090200;28;20201;-67
2023/06/29 03:28:17;;;;;;;2.10;2.00;;;20.70;99.90;;;;;;5088972;28;20260;-67
2023/06/29 03:30:44;;;;;;;2.15;2.05;;;20.70;99.90;;;;;;5088458;28;20280;-67
2023/06/29 03:33:11;;;;;;;2.65;2.20;;;20.70;99.90;;;;;;5086699;28;20594;-67
2023/06/29 03:35:38;;;;;;;2.20;2.10;;;20.80;99.90;;;;;;5084878;28;20200;-68
2023/06/29 03:38:07;;;;;;;1.92;1.83;;;20.70;99.90;;;;;;5090783;28;20196;-66
2023/06/29 03:40:34;;;;;;;2.20;2.10;;;20.80;99.90;;;;;;5091728;28;20757;-67
2023/06/29 03:43:07;;;;;;;2.30;2.10;;;20.70;99.90;;;;;;5091608;28;20228;-67
2023/06/29 03:45:34;;;;;;;2.20;2.03;;;20.70;99.90;;;;;;5071629;28;20563;-67
2023/06/29 03:48:01;;;;;;;2.38;2.25;;;20.70;99.90;;;;;;5089102;28;20192;-67
2023/06/29 03:50:28;;;;;;;2.97;2.25;;;20.70;99.90;;;;;;5071126;28;20342;-66
2023/06/29 03:52:56;;;;;;;2.22;2.03;;;20.70;99.90;;;;;;5084600;28;20650;-67
2023/06/29 03:55:24;;;;;;;1.70;1.60;;;20.70;99.90;;;;;;5071354;28;20307;-68
2023/06/29 03:57:51;;;;;;;2.22;2.13;;;20.80;99.90;;;;;;5071770;28;20750;-67
2023/06/29 04:00:20;;;;;;;2.15;1.95;;;20.70;99.90;;;;;;5091046;28;20216;-67
2023/06/29 04:02:47;;;;;;;2.80;1.83;;;20.70;99.90;;;;;;5090389;28;20216;-67
2023/06/29 04:05:14;;;;;;;2.45;2.17;;;20.80;99.90;;;;;;5091027;28;20644;-67
2023/06/29 04:07:41;;;;;;;2.78;2.03;;;20.80;99.90;;;;;;5090226;28;20225;-67
2023/06/29 04:10:09;;;;;;;2.22;2.03;;;20.80;99.90;;;;;;5090756;28;20224;-67
2023/06/29 04:12:36;;;;;;;2.40;2.20;;;20.80;99.90;;;;;;5090709;28;20200;-67
2023/06/29 04:15:03;;;;;;;2.28;2.17;;;20.90;99.90;;;;;;5072361;28;20285;-68
2023/06/29 04:17:31;;;;;;;2.45;2.13;;;20.80;99.90;;;;;;5069650;28;20204;-67
2023/06/29 04:19:58;;;;;;;1.75;1.65;;;20.90;99.90;;;;;;5086177;28;20340;-67
2023/06/29 04:22:25;;;;;;;2.05;1.95;;;20.90;99.90;;;;;;5086913;28;20204;-68
2023/06/29 04:24:52;;;;;;;2.10;2.00;;;20.90;99.90;;;;;;5077574;28;20275;-68
2023/06/29 04:27:19;;;;;;;2.25;1.95;;;20.90;99.90;;;;;;5072356;28;20204;-67
2023/06/29 04:29:46;;;;;;;1.92;1.83;;;20.90;99.90;;;;;;5090762;28;20344;-67
2023/06/29 04:32:14;;;;;;;1.98;1.77;;;21.00;99.90;;;;;;5071868;28;20209;-67
2023/06/29 04:34:42;;;;;;;1.75;1.65;;;21.00;99.90;;;;;;5085159;28;20197;-67
2023/06/29 04:37:09;;;;;;;1.77;1.67;;;21.10;99.90;;;;;;5067206;28;20238;-67
2023/06/29 04:39:36;;;;;;;2.10;1.90;;;21.10;99.90;;;;;;5089417;28;20258;-67
2023/06/29 04:42:05;;;;;;;2.00;1.90;;;21.10;99.90;;;;;;5089860;28;20208;-67
2023/06/29 04:44:33;;;;;;;1.83;1.73;;;21.10;99.90;;;;;;5090032;28;20275;-67
2023/06/29 04:47:01;;;;;;;1.90;1.80;;;21.10;99.90;;;;;;5089312;28;20197;-67
2023/06/29 04:49:31;;;;;;;2.45;1.67;;;21.10;99.90;;;;;;5089539;28;20226;-68
2023/06/29 04:52:00;;;;;;;1.90;1.80;;;21.20;99.90;;;;;;5089250;28;20208;-68
2023/06/29 04:54:27;;;;;;;1.83;1.73;;;21.20;99.90;;;;;;5088850;28;20196;-67
2023/06/29 04:56:56;;;;;;;2.78;1.98;;;21.30;99.90;;;;;;5089883;28;20200;-67
2023/06/29 04:59:24;;;;;;;1.83;1.73;;;21.30;99.90;;;;;;5088972;28;20197;-66
2023/06/29 05:01:52;;;;;;;1.77;1.67;;;21.30;99.90;;;;;;5089912;28;20307;-67
2023/06/29 05:04:19;;;;;;;1.70;1.60;;;21.30;99.90;;;;;;5088833;28;20246;-67
2023/06/29 05:06:46;;;;;;;1.70;1.60;;;21.40;99.90;;;;;;5089151;28;20204;-68
2023/06/29 05:09:15;;;;;;;1.70;1.60;;;21.40;99.90;;;;;;5088681;28;20253;-67
2023/06/29 05:11:45;;;;;;;1.70;1.60;;;21.40;99.90;;;;;;5089892;28;20475;-67
2023/06/29 05:14:13;;;;;;;1.67;1.45;;;21.40;99.90;;;;;;5089623;28;20283;-67
2023/06/29 05:16:40;;;;;;;1.88;1.45;;;21.50;99.90;;;;;;5089323;28;20243;-67
2023/06/29 05:19:07;;;;;;;1.17;1.17;;;21.50;99.90;;;;;;5085099;28;20765;-67
2023/06/29 05:21:34;;;;;;;2.58;2.20;;;21.60;99.90;;;;;;5087432;28;20206;-67
2023/06/29 05:24:01;;;;;;;1.52;1.48;;;21.60;99.90;;;;;;5088605;28;20258;-66
2023/06/29 05:26:29;;;;;;;1.85;1.75;;;21.60;99.90;;;;;;5089397;28;20228;-66
2023/06/29 05:28:57;;;;;;;1.50;1.40;;;21.60;99.90;;;;;;5089969;28;20228;-67
2023/06/29 05:31:27;;;;;;;1.63;1.52;;;21.70;99.90;;;;;;5080807;28;20212;-67
2023/06/29 05:33:54;;;;;;;1.50;1.40;;;21.80;99.90;;;;;;5066356;28;20205;-68
2023/06/29 05:36:21;;;;;;;3.22;1.40;;;21.80;99.90;;;;;;5085126;28;20228;-67
2023/06/29 05:38:48;;;;;;;1.25;1.20;;;21.90;99.90;;;;;;5083690;28;20667;-66
2023/06/29 05:41:15;;;;;;;1.90;1.80;;;22.00;99.90;;;;;;5071532;28;20322;-66
2023/06/29 05:43:44;;;;;;;1.63;1.30;;;22.00;99.90;;;;;;5089308;28;20201;-67
2023/06/29 05:46:11;;;;;;;1.90;1.30;;;22.10;99.90;;;;;;5089532;28;20789;-67
2023/06/29 05:48:40;;;;;;;1.60;1.50;;;22.20;99.90;;;;;;5070196;28;20872;-67
2023/06/29 05:51:07;;;;;;;1.27;1.27;;;22.20;99.90;;;;;;5081485;28;20201;-67
2023/06/29 05:53:34;;;;;;;1.20;1.20;;;22.20;99.90;;;;;;5085516;28;20287;-67
2023/06/29 05:56:04;;;;;;;1.20;1.20;;;22.30;99.90;;;;;;5089873;28;20203;-68
2023/06/29 05:58:31;;;;;;;1.33;1.20;;;22.30;99.90;;;;;;5071251;28;20303;-67
2023/06/29 06:01:01;;;;;;;1.52;1.42;;;22.40;99.90;;;;;;5088995;28;20240;-67
2023/06/29 06:03:28;;;;;;;1.80;1.60;;;22.40;99.90;;;;;;5088445;28;20212;-67
2023/06/29 06:05:55;;;;;;;1.30;1.30;;;22.40;99.90;;;;;;5089538;28;20247;-67
2023/06/29 06:08:22;;;;;;;1.52;1.42;;;22.40;99.90;;;;;;5087839;28;20232;-68
2023/06/29 06:10:50;;;;;;;1.38;1.30;;;22.40;99.90;;;;;;5072458;28;20245;-66
2023/06/29 06:13:17;;;;;;;2.38;1.60;;;22.40;99.90;;;;;;5051656;28;20201;-67
2023/06/29 06:15:44;;;;;;;1.50;1.40;;;22.40;99.90;;;;;;5054016;28;20282;-66
2023/06/29 06:18:13;;;;;;;1.50;1.40;;;22.50;99.90;;;;;;5084505;28;20203;-67
2023/06/29 06:20:40;;;;;;;1.85;1.70;;;22.50;99.90;;;;;;5085524;28;20266;-67
2023/06/29 06:23:09;;;;;;;1.38;1.33;;;22.40;99.90;;;;;;5089889;28;20827;-67
2023/06/29 06:25:39;;;;;;;1.63;1.50;;;22.50;99.90;;;;;;5081701;28;20211;-67
2023/06/29 06:28:06;;;;;;;1.23;1.23;;;22.50;99.90;;;;;;5087030;28;20184;-67
2023/06/29 06:30:33;;;;;;;1.10;1.10;;;22.50;99.90;;;;;;5089489;28;20192;-66
2023/06/29 06:33:01;;;;;;;1.00;1.00;;;22.50;99.90;;;;;;5071670;28;20204;-67
2023/06/29 06:35:29;;;;;;;1.00;1.00;;;22.50;99.90;;;;;;5070050;28;20576;-67
2023/06/29 06:37:56;;;;;;;1.65;1.40;;;22.50;99.90;;;;;;5088625;28;20963;-66
2023/06/29 06:40:24;;;;;;;1.60;1.50;;;22.60;99.90;;;;;;5085386;28;20208;-67
2023/06/29 06:42:51;;;;;;;3.50;1.80;;;22.60;99.90;;;;;;5090471;28;20189;-67
2023/06/29 06:45:18;;;;;;;1.63;1.52;;;22.60;99.90;;;;;;5070435;28;20197;-68
2023/06/29 06:47:45;;;;;;;2.72;1.70;;;22.60;99.90;;;;;;5089550;28;20262;-67
2023/06/29 06:50:12;;;;;;;1.60;1.50;;;22.60;99.90;;;;;;5089168;28;20196;-67
2023/06/29 06:52:40;;;;;;;1.20;1.20;;;22.70;99.90;;;;;;5079583;28;20792;-66
2023/06/29 06:55:08;;;;;;;2.65;1.50;;;22.60;99.90;;;;;;5089656;28;20275;-67
2023/06/29 06:57:36;;;;;;;1.58;1.48;;;22.70;99.90;;;;;;5089873;28;20559;-65
2023/06/29 07:00:10;;;;;;;1.70;1.60;;;22.60;99.90;;;;;;5089491;28;20250;-68
2023/06/29 07:02:37;;;;;;;1.70;1.60;;;22.70;99.90;;;;;;5071334;28;20211;-67
2023/06/29 07:05:05;;;;;;;1.38;1.30;;;22.60;99.90;;;;;;5072515;28;20287;-68
2023/06/29 07:07:33;;;;;;;1.75;1.38;;;22.70;99.90;;;;;;5089913;28;20871;-66
2023/06/29 07:10:01;;;;;;;1.58;1.40;;;22.60;99.90;;;;;;5070539;28;20203;-66
2023/06/29 07:12:28;;;;;;;1.48;1.48;;;22.60;99.90;;;;;;5089742;28;20200;-67
2023/06/29 07:14:55;;;;;;;1.88;1.77;;;22.70;99.90;;;;;;5089642;28;20270;-66
2023/06/29 07:17:22;;;;;;;1.48;1.13;;;22.70;99.90;;;;;;5088747;28;20192;-67
2023/06/29 07:19:49;;;;;;;1.33;1.33;;;22.80;99.90;;;;;;5087563;28;20188;-67
2023/06/29 07:22:17;;;;;;;3.70;1.25;;;22.80;99.90;;;;;;5068478;28;20765;-67
2023/06/29 07:24:44;;;;;;;1.30;1.20;;;22.80;99.90;;;;;;5082385;28;20692;-66
2023/06/29 07:27:12;;;;;;;1.10;1.10;;;22.80;99.90;;;;;;5087141;28;20220;-67
2023/06/29 07:29:42;;;;;;;1.05;0.93;;;22.90;99.90;;;;;;5088010;28;20205;-66
2023/06/29 07:32:12;;;;;;;1.40;1.30;;;22.90;99.90;;;;;;5089088;28;20254;-67
2023/06/29 07:34:39;;;;;;;1.50;1.40;;;23.00;99.90;;;;;;5077021;28;20191;-67
2023/06/29 07:37:06;;;;;;;1.35;1.25;;;23.00;99.90;;;;;;5085809;28;20212;-67
2023/06/29 07:39:34;;;;;;;1.10;1.10;;;23.10;99.90;;;;;;5086660;28;20215;-67
2023/06/29 07:42:01;;;;;;;1.08;1.00;;;23.10;99.90;;;;;;5088508;28;21029;-67
2023/06/29 07:44:29;;;;;;;1.20;1.20;;;23.10;99.90;;;;;;5089094;28;20287;-67
2023/06/29 07:46:57;;;;;;;1.30;1.20;;;23.20;99.90;;;;;;5089427;28;20189;-67
2023/06/29 07:49:24;;;;;;;2.38;1.60;;;23.20;99.90;;;;;;5062929;28;20501;-66
2023/06/29 07:51:51;;;;;;;1.48;1.38;;;23.20;99.70;;;;;;5083488;28;20199;-66
2023/06/29 07:54:18;;;;;;;1.67;1.25;;;23.30;99.40;;;;;;5086741;28;20228;-66
2023/06/29 07:56:45;;;;;;;1.55;1.45;;;23.30;99.20;;;;;;5089117;28;20317;-66
2023/06/29 07:59:12;;;;;;;1.45;1.35;;;23.30;99.10;;;;;;5088123;28;20215;-67
2023/06/29 08:01:41;;;;;;;1.35;1.25;;;23.40;98.90;;;;;;5086998;28;20572;-66
2023/06/29 08:04:08;;;;;;;1.23;1.13;;;23.40;98.70;;;;;;5088185;28;20205;-67
2023/06/29 08:06:41;;;;;;;1.20;1.20;;;23.50;98.60;;;;;;5080717;28;20272;-66
2023/06/29 08:09:08;;;;;;;1.00;1.00;;;23.50;98.30;;;;;;5067628;28;20231;-67
2023/06/29 08:11:35;;;;;;;1.00;1.00;;;23.70;98.10;;;;;;5069122;28;20561;-67
2023/06/29 08:14:03;;;;;;;1.60;1.50;;;23.70;97.80;;;;;;5089442;28;20705;-67
2023/06/29 08:16:31;;;;;;;3.80;1.15;;;23.80;97.50;;;;;;5089159;28;20204;-67
2023/06/29 08:18:59;;;;;;;1.73;1.63;;;23.80;97.20;;;;;;5064924;28;20254;-66
2023/06/29 08:21:26;;;;;;;1.40;1.30;;;23.90;96.80;;;;;;5081379;28;20305;-67
2023/06/29 08:23:53;;;;;;;1.42;1.30;;;24.00;96.80;;;;;;5063143;28;20251;-67
2023/06/29 08:26:22;;;;;;;1.23;1.17;;;24.00;96.50;;;;;;5084818;28;20219;-66
2023/06/29 08:28:49;;;;;;;1.13;1.10;;;24.10;96.40;;;;;;5087758;28;20303;-66
2023/06/29 08:31:17;;;;;;;1.00;1.00;;;24.10;96.30;;;;;;5087689;28;20195;-67
2023/06/29 08:33:44;;;;;;;0.93;0.90;;;24.20;96.30;;;;;;5088002;28;20682;-67
2023/06/29 08:36:13;;;;;;;1.10;1.10;;;24.30;96.10;;;;;;5087954;28;20207;-66
2023/06/29 08:38:45;;;;;;;1.10;1.10;;;24.40;96.00;;;;;;5081500;28;20291;-66
2023/06/29 08:41:31;;;;;;;1.67;1.25;;;24.50;95.70;;;;;;5088163;28;20216;-65
2023/06/29 08:44:01;;;;;;;1.30;1.20;;;24.50;95.30;;;;;;5087888;28;20675;-66
2023/06/29 08:46:29;;;;;;;1.08;1.08;;;24.60;95.10;;;;;;5087259;28;20631;-67
2023/06/29 08:48:57;;;;;;;0.90;0.90;;;24.60;94.80;;;;;;5087006;28;20219;-67
2023/06/29 08:51:27;;;;;;;1.10;1.10;;;24.70;94.70;;;;;;5087599;28;20199;-67
2023/06/29 08:53:54;;;;;;;1.17;1.13;;;24.70;94.40;;;;;;5087047;28;20199;-67
2023/06/29 08:56:24;;;;;;;0.90;0.90;;;24.90;94.10;;;;;;5085467;28;20192;-65
2023/06/29 08:58:52;;;;;;;0.90;0.90;;;24.90;93.70;;;;;;5086998;28;20211;-67
2023/06/29 09:01:20;;;;;;;0.80;0.80;;;25.00;93.50;;;;;;5075334;28;20293;-67
2023/06/29 09:03:48;;;;;;;0.90;0.90;;;25.10;93.30;;;;;;5084383;28;20203;-67
2023/06/29 09:06:15;;;;;;;1.30;1.30;;;25.10;93.00;;;;;;5081998;28;20196;-66
2023/06/29 09:08:44;;;;;;;1.20;1.10;;;25.20;92.60;;;;;;5080457;28;20618;-67
2023/06/29 09:11:11;;;;;;;1.25;1.17;;;25.30;92.30;;;;;;5086164;28;20226;-67
2023/06/29 09:13:38;;;;;;;1.10;1.10;;;25.40;91.90;;;;;;5088095;28;20255;-66
2023/06/29 09:16:06;;;;;;;1.10;1.10;;;25.40;91.70;;;;;;5065234;28;20242;-67
2023/06/29 09:18:34;;;;;;;1.35;1.20;;;25.40;91.40;;;;;;5065623;28;20210;-67
2023/06/29 09:21:04;;;;;;;0.80;0.80;;;25.50;91.00;;;;;;5062748;28;20219;-65
2023/06/29 09:23:31;;;;;;;0.93;0.93;;;25.60;90.90;;;;;;5079718;28;20855;-67
2023/06/29 09:25:59;;;;;;;1.30;1.20;;;25.60;90.80;;;;;;5081282;28;20209;-66
2023/06/29 09:28:27;;;;;;;1.38;1.15;;;25.60;90.60;;;;;;5081662;28;20205;-67
2023/06/29 09:30:54;;;;;;;1.10;1.10;;;25.70;90.60;;;;;;5066095;28;20287;-72
2023/06/29 09:33:26;;;;;;;1.05;1.05;;;25.70;90.70;;;;;;5086820;28;20956;-70
2023/06/29 09:35:54;;;;;;;4.32;1.20;;;25.80;90.70;;;;;;5083039;28;20230;-71
2023/06/29 09:38:21;;;;;;;2.17;1.30;;;25.90;91.00;;;;;;5086258;28;20188;-72
2023/06/29 09:40:49;;;;;;;3.67;1.33;;;25.90;91.00;;;;;;5082932;28;20275;-72
2023/06/29 09:43:21;;;;;;;1.63;1.52;;;26.00;90.90;;;;;;5087335;28;20205;-71
2023/06/29 09:45:49;;;;;;;1.25;1.25;;;26.00;90.60;;;;;;5086650;28;20188;-71
2023/06/29 09:48:16;;;;;;;1.40;1.30;;;26.10;90.40;;;;;;5086147;28;20268;-72
2023/06/29 09:50:49;;;;;;;2.42;1.80;;;26.10;90.20;;;;;;5086338;28;20234;-70
2023/06/29 09:53:17;;;;;;;1.50;1.40;;;26.20;90.10;;;;;;5070406;28;20686;-71
2023/06/29 09:55:44;;;;;;;1.70;1.60;;;26.30;90.00;;;;;;5084840;28;20701;-71
2023/06/29 09:58:17;;;;;;;1.55;1.45;;;26.30;89.30;;;;;;5090788;28;20613;-71
2023/06/29 10:00:48;;;;;;;1.35;1.25;;;26.30;88.90;;;;;;5084388;28;20299;-71
2023/06/29 10:03:15;;;;;;;1.13;1.10;;;26.30;88.30;;;;;;5089458;28;20654;-71
2023/06/29 10:05:42;;;;;;;1.50;1.40;;;26.40;87.80;;;;;;5091222;28;20200;-72
2023/06/29 10:08:16;;;;;;;1.88;1.20;;;26.40;87.60;;;;;;5090729;28;20666;-71
2023/06/29 10:10:45;;;;;;;1.17;1.17;;;26.50;87.20;;;;;;5089899;28;20675;-70
2023/06/29 10:13:15;;;;;;;1.77;1.15;;;26.40;86.90;;;;;;5090590;28;20725;-71
2023/06/29 10:15:42;;;;;;;1.50;1.40;;;26.50;85.90;;;;;;5090836;28;20223;-71
2023/06/29 10:18:22;;;;;;;1.35;1.30;;;26.50;85.40;;;;;;5071494;28;20659;-71
2023/06/29 10:20:50;;;;;;;1.38;1.38;;;26.50;85.10;;;;;;5088155;28;20833;-70
2023/06/29 10:23:22;;;;;;;1.67;1.58;;;26.60;84.50;;;;;;5083725;28;20219;-70
2023/06/29 10:25:55;;;;;;;1.55;1.40;;;26.60;83.80;;;;;;5071082;28;20541;-70
2023/06/29 10:28:23;;;;;;;1.60;1.50;;;26.60;83.60;;;;;;5086793;28;20209;-71
2023/06/29 10:30:51;;;;;;;1.70;1.60;;;26.60;82.80;;;;;;5077787;28;20287;-69
2023/06/29 10:33:27;;;;;;;1.58;1.48;;;26.60;82.10;;;;;;5081027;28;20231;-70
2023/06/29 10:35:57;;;;;;;1.40;1.35;;;26.50;81.80;;;;;;5078625;28;20192;-71
2023/06/29 10:38:31;;;;;;;1.30;1.20;;;26.60;81.30;;;;;;5085574;28;20200;-71
2023/06/29 10:41:07;;;;;;;1.00;1.00;;;26.60;81.50;;;;;;5089636;28;20199;-71
2023/06/29 10:43:55;;;;;;;1.15;1.08;;;26.60;80.90;;;;;;5088199;28;20304;-71
2023/06/29 10:46:54;;;;;;;1.23;1.10;;;26.60;80.20;;;;;;5088757;28;20212;-71
2023/06/29 10:49:23;;;;;;;2.13;1.25;;;26.70;80.00;;;;;;5085556;28;20188;-69
2023/06/29 10:51:51;;;;;;;0.90;0.90;;;26.70;79.70;;;;;;5085120;28;20548;-70
2023/06/29 10:54:22;;;;;;;1.10;1.00;;;26.80;79.60;;;;;;5088691;28;20280;-71
2023/06/29 10:56:58;;;;;;;1.08;1.08;;;26.80;79.40;;;;;;5072292;28;20681;-71
2023/06/29 10:59:26;;;;;;;0.90;0.90;;;26.80;79.30;;;;;;5089703;28;20188;-72
2023/06/29 11:01:54;;;;;;;0.82;0.82;;;26.90;79.30;;;;;;5085654;28;20266;-70
2023/06/29 11:04:23;;;;;;;1.00;1.00;;;27.00;79.30;;;;;;5068753;28;20201;-71
2023/06/29 11:06:50;;;;;;;1.10;1.10;;;27.00;79.30;;;;;;5068491;28;20193;-71
2023/06/29 11:09:18;;;;;;;1.00;1.00;;;27.10;79.30;;;;;;5083689;28;20235;-70
2023/06/29 11:11:47;;;;;;;1.10;1.10;;;27.20;79.50;;;;;;5087452;28;20192;-70
2023/06/29 11:14:14;;;;;;;1.02;1.02;;;27.20;79.50;;;;;;5088751;28;20192;-71
2023/06/29 11:16:41;;;;;;;1.38;1.25;;;27.30;79.20;;;;;;5087901;28;20273;-71
2023/06/29 11:19:09;;;;;;;1.27;1.27;;;27.30;79.00;;;;;;5078584;28;20197;-70
2023/06/29 11:21:37;;;;;;;1.75;1.65;;;27.40;79.10;;;;;;5066806;28;20204;-71
2023/06/29 11:24:05;;;;;;;2.92;1.42;;;27.40;78.30;;;;;;5059918;28;20637;-70
2023/06/29 11:26:37;;;;;;;1.33;1.23;;;27.30;78.30;;;;;;5087669;28;20201;-70
2023/06/29 11:29:10;;;;;;;1.20;1.10;;;27.30;78.10;;;;;;5061878;28;20194;-71
2023/06/29 11:31:37;;;;;;;0.90;0.90;;;27.40;77.60;;;;;;5089984;28;20189;-71
2023/06/29 11:34:04;;;;;;;1.00;1.00;;;27.40;77.20;;;;;;5089383;28;20204;-71
2023/06/29 11:36:36;;;;;;;2.17;1.15;;;27.40;76.60;;;;;;5089290;28;20266;-71
2023/06/29 11:39:07;;;;;;;1.80;1.35;;;27.50;76.40;;;;;;5089046;28;20222;-66
2023/06/29 11:41:34;;;;;;;3.53;1.25;;;27.50;75.70;;;;;;5089824;28;20214;-66
2023/06/29 11:44:02;;;;;;;1.20;1.20;;;27.60;75.90;;;;;;5089263;28;20215;-66
2023/06/29 11:46:33;;;;;;;0.90;0.90;;;27.60;75.60;;;;;;5089255;28;20200;-66
2023/06/29 11:49:00;;;;;;;1.35;1.20;;;27.60;75.50;;;;;;5089311;28;20249;-66
2023/06/29 11:51:29;;;;;;;1.23;1.23;;;27.60;75.50;;;;;;5062788;28;20316;-66
2023/06/29 11:53:56;;;;;;;1.13;1.13;;;27.60;75.30;;;;;;5070947;28;20197;-67
2023/06/29 11:56:26;;;;;;;1.23;1.23;;;27.50;75.10;;;;;;5086147;28;20861;-66
2023/06/29 11:58:56;;;;;;;1.08;1.08;;;27.60;75.30;;;;;;5070302;28;20200;-66
2023/06/29 12:01:24;;;;;;;4.57;1.40;;;27.60;74.40;;;;;;5062968;28;20358;-66
2023/06/29 12:03:51;;;;;;;2.70;1.25;;;27.60;73.40;;;;;;5082567;28;20257;-66
2023/06/29 12:06:18;;;;;;;3.38;1.38;;;27.60;73.00;;;;;;5088388;28;20224;-67
2023/06/29 12:08:45;;;;;;;3.13;1.38;;;27.70;73.10;;;;;;5070353;28;20807;-67
2023/06/29 12:11:16;;;;;;;6.57;1.65;;;27.70;72.90;;;;;;5087604;28;20212;-66
2023/06/29 12:13:49;;;;;;;1.85;1.38;;;27.70;72.60;;;;;;5081897;28;20242;-66
2023/06/29 12:16:17;;;;;;;1.98;1.42;;;27.70;72.30;;;;;;5068876;28;20223;-66
2023/06/29 12:18:45;;;;;;;1.95;1.40;;;27.80;72.40;;;;;;5076257;28;20246;-67
2023/06/29 12:21:18;;;;;;;10.15;1.90;;;27.80;71.70;;;;;;5087177;28;20208;-67
2023/06/29 12:23:49;;;;;;;10.23;2.40;;;27.90;70.60;;;;;;5078502;28;20326;-67
2023/06/29 12:26:16;;;;;;;6.60;1.90;;;27.90;70.30;;;;;;5087926;28;20212;-67
2023/06/29 12:28:47;;;;;;;8.10;1.92;;;27.90;70.90;;;;;;5082479;28;20204;-67
2023/06/29 12:31:14;;;;;;;4.60;1.77;;;27.90;71.30;;;;;;5079047;28;20193;-66
2023/06/29 12:33:41;;;;;;;1.58;1.48;;;28.00;71.50;;;;;;5088350;28;20337;-66
2023/06/29 12:36:08;;;;;;;1.90;1.45;;;28.00;71.50;;;;;;5088425;28;20584;-66
2023/06/29 12:38:36;;;;;;;1.63;1.40;;;28.10;71.50;;;;;;5083162;28;20726;-67
2023/06/29 12:41:03;;;;;;;1.25;1.20;;;28.10;71.20;;;;;;5086853;28;20649;-67
2023/06/29 12:43:31;;;;;;;1.17;1.08;;;28.10;70.90;;;;;;5078667;28;20292;-67
2023/06/29 12:46:01;;;;;;;1.58;1.48;;;28.10;71.00;;;;;;5088058;28;20210;-66
2023/06/29 12:48:28;;;;;;;1.10;1.10;;;28.10;70.80;;;;;;5067284;28;20209;-67
2023/06/29 12:50:59;;;;;;;1.63;1.40;;;28.10;70.50;;;;;;5086407;28;20189;-67
2023/06/29 12:53:32;;;;;;;1.25;1.20;;;28.00;69.80;;;;;;5068347;28;20222;-66